sensor_id;sensor_type;location;lat;lon;timestamp;P1;durP1;ratioP1;P2;durP2;ratioP2
41436;SDS011;27178;49.460;10.850;2022-07-23T00:01:03;4.63;;;4.28;;
41436;SDS011;27178;49.460;10.850;2022-07-23T00:03:32;4.55;;;4.07;;
41436;SDS011;27178;49.460;10.850;2022-07-23T00:06:00;5.40;;;4.07;;
41436;SDS011;27178;49.460;10.850;2022-07-23T00:08:34;4.32;;;3.92;;
41436;SDS011;27178;49.460;10.850;2022-07-23T00:11:03;5.93;;;4.43;;
41436;SDS011;27178;49.460;10.850;2022-07-23T00:13:33;4.97;;;4.47;;
41436;SDS011;27178;49.460;10.850;2022-07-23T00:16:01;4.50;;;4.05;;
41436;SDS011;27178;49.460;10.850;2022-07-23T00:18:30;4.38;;;4.05;;
41436;SDS011;27178;49.460;10.850;2022-07-23T00:20:58;5.60;;;4.50;;
41436;SDS011;27178;49.460;10.850;2022-07-23T00:23:26;4.05;;;3.72;;
41436;SDS011;27178;49.460;10.850;2022-07-23T00:25:55;4.70;;;4.30;;
41436;SDS011;27178;49.460;10.850;2022-07-23T00:28:24;7.18;;;6.55;;
41436;SDS011;27178;49.460;10.850;2022-07-23T00:30:54;5.88;;;5.38;;
41436;SDS011;27178;49.460;10.850;2022-07-23T00:33:23;4.80;;;4.38;;
41436;SDS011;27178;49.460;10.850;2022-07-23T00:35:51;5.25;;;4.55;;
41436;SDS011;27178;49.460;10.850;2022-07-23T00:38:19;5.03;;;4.07;;
41436;SDS011;27178;49.460;10.850;2022-07-23T00:40:48;4.30;;;3.90;;
41436;SDS011;27178;49.460;10.850;2022-07-23T00:43:16;4.15;;;3.85;;
41436;SDS011;27178;49.460;10.850;2022-07-23T00:45:47;4.57;;;3.88;;
41436;SDS011;27178;49.460;10.850;2022-07-23T00:48:16;6.05;;;4.03;;
41436;SDS011;27178;49.460;10.850;2022-07-23T00:50:45;4.88;;;4.40;;
41436;SDS011;27178;49.460;10.850;2022-07-23T00:53:14;5.43;;;4.13;;
41436;SDS011;27178;49.460;10.850;2022-07-23T00:55:42;4.72;;;4.32;;
41436;SDS011;27178;49.460;10.850;2022-07-23T00:58:11;4.78;;;4.38;;
41436;SDS011;27178;49.460;10.850;2022-07-23T01:00:40;4.45;;;4.05;;
41436;SDS011;27178;49.460;10.850;2022-07-23T01:03:09;6.40;;;4.20;;
41436;SDS011;27178;49.460;10.850;2022-07-23T01:05:39;4.75;;;3.47;;
41436;SDS011;27178;49.460;10.850;2022-07-23T01:08:07;5.47;;;4.43;;
41436;SDS011;27178;49.460;10.850;2022-07-23T01:10:35;5.10;;;4.40;;
41436;SDS011;27178;49.460;10.850;2022-07-23T01:13:05;5.13;;;4.50;;
41436;SDS011;27178;49.460;10.850;2022-07-23T01:15:34;4.60;;;4.20;;
41436;SDS011;27178;49.460;10.850;2022-07-23T01:18:04;5.22;;;3.88;;
41436;SDS011;27178;49.460;10.850;2022-07-23T01:20:33;5.55;;;5.05;;
41436;SDS011;27178;49.460;10.850;2022-07-23T01:23:04;4.95;;;4.45;;
41436;SDS011;27178;49.460;10.850;2022-07-23T01:25:32;4.93;;;4.50;;
41436;SDS011;27178;49.460;10.850;2022-07-23T01:28:00;4.90;;;4.50;;
41436;SDS011;27178;49.460;10.850;2022-07-23T01:30:28;5.78;;;4.38;;
41436;SDS011;27178;49.460;10.850;2022-07-23T01:32:57;4.72;;;4.30;;
41436;SDS011;27178;49.460;10.850;2022-07-23T01:35:25;7.07;;;4.20;;
41436;SDS011;27178;49.460;10.850;2022-07-23T01:37:54;4.63;;;4.22;;
41436;SDS011;27178;49.460;10.850;2022-07-23T01:40:23;5.28;;;4.60;;
41436;SDS011;27178;49.460;10.850;2022-07-23T01:42:52;5.07;;;4.50;;
41436;SDS011;27178;49.460;10.850;2022-07-23T01:45:21;4.82;;;4.43;;
41436;SDS011;27178;49.460;10.850;2022-07-23T01:47:50;5.22;;;4.82;;
41436;SDS011;27178;49.460;10.850;2022-07-23T01:50:18;7.95;;;4.90;;
41436;SDS011;27178;49.460;10.850;2022-07-23T01:52:47;5.63;;;4.75;;
41436;SDS011;27178;49.460;10.850;2022-07-23T01:55:16;4.85;;;4.45;;
41436;SDS011;27178;49.460;10.850;2022-07-23T01:57:46;4.85;;;4.45;;
41436;SDS011;27178;49.460;10.850;2022-07-23T02:00:14;6.85;;;5.00;;
41436;SDS011;27178;49.460;10.850;2022-07-23T02:02:43;4.38;;;4.07;;
41436;SDS011;27178;49.460;10.850;2022-07-23T02:05:12;5.63;;;4.53;;
41436;SDS011;27178;49.460;10.850;2022-07-23T02:07:40;5.28;;;4.75;;
41436;SDS011;27178;49.460;10.850;2022-07-23T02:10:08;4.82;;;4.43;;
41436;SDS011;27178;49.460;10.850;2022-07-23T02:12:37;5.15;;;4.68;;
41436;SDS011;27178;49.460;10.850;2022-07-23T02:15:07;5.20;;;4.72;;
41436;SDS011;27178;49.460;10.850;2022-07-23T02:17:39;4.97;;;4.30;;
41436;SDS011;27178;49.460;10.850;2022-07-23T02:20:08;4.55;;;4.15;;
41436;SDS011;27178;49.460;10.850;2022-07-23T02:22:37;5.45;;;4.47;;
41436;SDS011;27178;49.460;10.850;2022-07-23T02:25:07;5.03;;;4.40;;
41436;SDS011;27178;49.460;10.850;2022-07-23T02:27:36;5.03;;;4.63;;
41436;SDS011;27178;49.460;10.850;2022-07-23T02:30:05;5.40;;;4.32;;
41436;SDS011;27178;49.460;10.850;2022-07-23T02:32:36;5.05;;;4.60;;
41436;SDS011;27178;49.460;10.850;2022-07-23T02:35:06;4.40;;;4.00;;
41436;SDS011;27178;49.460;10.850;2022-07-23T02:37:35;4.82;;;4.35;;
41436;SDS011;27178;49.460;10.850;2022-07-23T02:40:03;3.85;;;3.55;;
41436;SDS011;27178;49.460;10.850;2022-07-23T02:42:33;4.82;;;4.35;;
41436;SDS011;27178;49.460;10.850;2022-07-23T02:45:02;4.80;;;4.32;;
41436;SDS011;27178;49.460;10.850;2022-07-23T02:47:32;4.38;;;3.97;;
41436;SDS011;27178;49.460;10.850;2022-07-23T02:50:00;5.35;;;4.85;;
41436;SDS011;27178;49.460;10.850;2022-07-23T02:52:30;4.63;;;4.22;;
41436;SDS011;27178;49.460;10.850;2022-07-23T02:54:58;4.30;;;3.90;;
41436;SDS011;27178;49.460;10.850;2022-07-23T02:57:26;5.72;;;4.50;;
41436;SDS011;27178;49.460;10.850;2022-07-23T02:59:55;5.38;;;4.72;;
41436;SDS011;27178;49.460;10.850;2022-07-23T03:02:23;5.45;;;4.45;;
41436;SDS011;27178;49.460;10.850;2022-07-23T03:04:53;4.35;;;3.97;;
41436;SDS011;27178;49.460;10.850;2022-07-23T03:07:21;5.00;;;4.47;;
41436;SDS011;27178;49.460;10.850;2022-07-23T03:09:50;5.30;;;4.82;;
41436;SDS011;27178;49.460;10.850;2022-07-23T03:12:18;4.50;;;4.20;;
41436;SDS011;27178;49.460;10.850;2022-07-23T03:14:47;4.75;;;4.35;;
41436;SDS011;27178;49.460;10.850;2022-07-23T03:17:15;5.05;;;4.65;;
41436;SDS011;27178;49.460;10.850;2022-07-23T03:19:43;6.05;;;5.05;;
41436;SDS011;27178;49.460;10.850;2022-07-23T03:22:13;5.80;;;4.40;;
41436;SDS011;27178;49.460;10.850;2022-07-23T03:24:41;5.05;;;4.53;;
41436;SDS011;27178;49.460;10.850;2022-07-23T03:27:22;4.60;;;4.20;;
41436;SDS011;27178;49.460;10.850;2022-07-23T03:29:52;4.63;;;4.32;;
41436;SDS011;27178;49.460;10.850;2022-07-23T03:32:22;4.60;;;4.20;;
41436;SDS011;27178;49.460;10.850;2022-07-23T03:34:51;5.25;;;4.80;;
41436;SDS011;27178;49.460;10.850;2022-07-23T03:37:21;4.93;;;4.45;;
41436;SDS011;27178;49.460;10.850;2022-07-23T03:39:51;5.13;;;4.47;;
41436;SDS011;27178;49.460;10.850;2022-07-23T03:42:19;6.20;;;4.95;;
41436;SDS011;27178;49.460;10.850;2022-07-23T03:44:47;4.63;;;4.22;;
41436;SDS011;27178;49.460;10.850;2022-07-23T03:47:16;5.07;;;4.68;;
41436;SDS011;27178;49.460;10.850;2022-07-23T03:49:48;4.47;;;4.07;;
41436;SDS011;27178;49.460;10.850;2022-07-23T03:52:17;5.53;;;4.70;;
41436;SDS011;27178;49.460;10.850;2022-07-23T03:54:46;4.20;;;3.83;;
41436;SDS011;27178;49.460;10.850;2022-07-23T03:57:15;5.57;;;3.80;;
41436;SDS011;27178;49.460;10.850;2022-07-23T03:59:43;6.85;;;4.28;;
41436;SDS011;27178;49.460;10.850;2022-07-23T04:02:12;4.30;;;3.97;;
41436;SDS011;27178;49.460;10.850;2022-07-23T04:04:40;4.32;;;4.00;;
41436;SDS011;27178;49.460;10.850;2022-07-23T04:07:09;4.65;;;4.25;;
41436;SDS011;27178;49.460;10.850;2022-07-23T04:09:37;4.57;;;4.18;;
41436;SDS011;27178;49.460;10.850;2022-07-23T04:12:13;3.85;;;3.55;;
41436;SDS011;27178;49.460;10.850;2022-07-23T04:14:42;4.45;;;4.05;;
41436;SDS011;27178;49.460;10.850;2022-07-23T04:17:10;4.32;;;3.67;;
41436;SDS011;27178;49.460;10.850;2022-07-23T04:19:38;4.32;;;3.92;;
41436;SDS011;27178;49.460;10.850;2022-07-23T04:22:08;3.55;;;3.25;;
41436;SDS011;27178;49.460;10.850;2022-07-23T04:24:37;3.78;;;3.47;;
41436;SDS011;27178;49.460;10.850;2022-07-23T04:27:06;3.58;;;3.38;;
41436;SDS011;27178;49.460;10.850;2022-07-23T04:29:36;3.38;;;3.08;;
41436;SDS011;27178;49.460;10.850;2022-07-23T04:32:04;4.28;;;3.65;;
41436;SDS011;27178;49.460;10.850;2022-07-23T04:34:33;3.63;;;3.22;;
41436;SDS011;27178;49.460;10.850;2022-07-23T04:37:02;3.75;;;3.35;;
41436;SDS011;27178;49.460;10.850;2022-07-23T04:39:30;4.18;;;3.78;;
41436;SDS011;27178;49.460;10.850;2022-07-23T04:41:58;4.00;;;3.42;;
41436;SDS011;27178;49.460;10.850;2022-07-23T04:44:27;5.05;;;3.60;;
41436;SDS011;27178;49.460;10.850;2022-07-23T04:46:57;4.20;;;3.80;;
41436;SDS011;27178;49.460;10.850;2022-07-23T04:49:25;5.43;;;3.70;;
41436;SDS011;27178;49.460;10.850;2022-07-23T04:51:54;4.03;;;3.17;;
41436;SDS011;27178;49.460;10.850;2022-07-23T04:54:22;3.55;;;3.28;;
41436;SDS011;27178;49.460;10.850;2022-07-23T04:56:50;3.90;;;3.08;;
41436;SDS011;27178;49.460;10.850;2022-07-23T04:59:27;3.17;;;2.88;;
41436;SDS011;27178;49.460;10.850;2022-07-23T05:01:55;3.70;;;3.40;;
41436;SDS011;27178;49.460;10.850;2022-07-23T05:04:24;3.55;;;3.25;;
41436;SDS011;27178;49.460;10.850;2022-07-23T05:06:52;3.50;;;3.20;;
41436;SDS011;27178;49.460;10.850;2022-07-23T05:09:21;3.47;;;3.13;;
41436;SDS011;27178;49.460;10.850;2022-07-23T05:11:49;3.42;;;3.20;;
41436;SDS011;27178;49.460;10.850;2022-07-23T05:14:18;3.08;;;2.88;;
41436;SDS011;27178;49.460;10.850;2022-07-23T05:16:47;3.35;;;3.15;;
41436;SDS011;27178;49.460;10.850;2022-07-23T05:19:16;3.60;;;3.40;;
41436;SDS011;27178;49.460;10.850;2022-07-23T05:21:47;3.72;;;3.42;;
41436;SDS011;27178;49.460;10.850;2022-07-23T05:24:16;3.40;;;3.10;;
41436;SDS011;27178;49.460;10.850;2022-07-23T05:26:44;3.22;;;3.03;;
41436;SDS011;27178;49.460;10.850;2022-07-23T05:29:12;3.15;;;2.95;;
41436;SDS011;27178;49.460;10.850;2022-07-23T05:31:41;3.63;;;3.22;;
41436;SDS011;27178;49.460;10.850;2022-07-23T05:34:10;3.50;;;3.20;;
41436;SDS011;27178;49.460;10.850;2022-07-23T05:36:43;3.03;;;2.83;;
41436;SDS011;27178;49.460;10.850;2022-07-23T05:39:12;3.25;;;3.05;;
41436;SDS011;27178;49.460;10.850;2022-07-23T05:41:40;3.20;;;3.00;;
41436;SDS011;27178;49.460;10.850;2022-07-23T05:44:08;3.03;;;2.83;;
41436;SDS011;27178;49.460;10.850;2022-07-23T05:46:37;2.53;;;2.33;;
41436;SDS011;27178;49.460;10.850;2022-07-23T05:49:06;3.10;;;2.88;;
41436;SDS011;27178;49.460;10.850;2022-07-23T05:51:36;3.20;;;2.90;;
41436;SDS011;27178;49.460;10.850;2022-07-23T05:54:04;3.47;;;3.00;;
41436;SDS011;27178;49.460;10.850;2022-07-23T05:56:33;3.05;;;2.85;;
41436;SDS011;27178;49.460;10.850;2022-07-23T05:59:02;3.80;;;3.45;;
41436;SDS011;27178;49.460;10.850;2022-07-23T06:01:31;3.58;;;3.00;;
41436;SDS011;27178;49.460;10.850;2022-07-23T06:03:59;3.00;;;2.80;;
41436;SDS011;27178;49.460;10.850;2022-07-23T06:06:28;3.10;;;2.90;;
41436;SDS011;27178;49.460;10.850;2022-07-23T06:08:58;3.67;;;2.78;;
41436;SDS011;27178;49.460;10.850;2022-07-23T06:11:26;3.22;;;3.03;;
41436;SDS011;27178;49.460;10.850;2022-07-23T06:13:56;3.10;;;2.90;;
41436;SDS011;27178;49.460;10.850;2022-07-23T06:16:24;2.75;;;2.55;;
41436;SDS011;27178;49.460;10.850;2022-07-23T06:18:53;3.10;;;2.90;;
41436;SDS011;27178;49.460;10.850;2022-07-23T06:21:21;3.65;;;3.13;;
41436;SDS011;27178;49.460;10.850;2022-07-23T06:24:11;3.65;;;3.35;;
41436;SDS011;27178;49.460;10.850;2022-07-23T06:26:40;3.78;;;3.22;;
41436;SDS011;27178;49.460;10.850;2022-07-23T06:29:08;3.17;;;2.97;;
41436;SDS011;27178;49.460;10.850;2022-07-23T06:31:36;4.13;;;3.05;;
41436;SDS011;27178;49.460;10.850;2022-07-23T06:34:05;4.10;;;3.05;;
41436;SDS011;27178;49.460;10.850;2022-07-23T06:36:37;3.85;;;3.55;;
41436;SDS011;27178;49.460;10.850;2022-07-23T06:39:08;3.17;;;2.97;;
41436;SDS011;27178;49.460;10.850;2022-07-23T06:41:37;3.47;;;3.13;;
41436;SDS011;27178;49.460;10.850;2022-07-23T06:44:06;3.63;;;3.33;;
41436;SDS011;27178;49.460;10.850;2022-07-23T06:46:34;5.65;;;3.97;;
41436;SDS011;27178;49.460;10.850;2022-07-23T06:49:03;3.58;;;3.28;;
41436;SDS011;27178;49.460;10.850;2022-07-23T06:51:33;3.90;;;3.60;;
41436;SDS011;27178;49.460;10.850;2022-07-23T06:54:01;6.05;;;3.90;;
41436;SDS011;27178;49.460;10.850;2022-07-23T06:56:30;4.95;;;4.20;;
41436;SDS011;27178;49.460;10.850;2022-07-23T06:59:00;4.15;;;3.80;;
41436;SDS011;27178;49.460;10.850;2022-07-23T07:01:29;4.38;;;4.00;;
41436;SDS011;27178;49.460;10.850;2022-07-23T07:03:58;4.65;;;4.18;;
41436;SDS011;27178;49.460;10.850;2022-07-23T07:06:26;3.92;;;3.58;;
41436;SDS011;27178;49.460;10.850;2022-07-23T07:08:54;4.00;;;3.53;;
41436;SDS011;27178;49.460;10.850;2022-07-23T07:11:23;4.30;;;3.90;;
41436;SDS011;27178;49.460;10.850;2022-07-23T07:13:51;4.40;;;3.97;;
41436;SDS011;27178;49.460;10.850;2022-07-23T07:16:21;6.30;;;4.38;;
41436;SDS011;27178;49.460;10.850;2022-07-23T07:18:56;5.13;;;4.28;;
41436;SDS011;27178;49.460;10.850;2022-07-23T07:21:24;4.70;;;4.13;;
41436;SDS011;27178;49.460;10.850;2022-07-23T07:23:52;4.47;;;3.97;;
41436;SDS011;27178;49.460;10.850;2022-07-23T07:26:21;4.65;;;4.25;;
41436;SDS011;27178;49.460;10.850;2022-07-23T07:28:49;4.72;;;4.32;;
41436;SDS011;27178;49.460;10.850;2022-07-23T07:31:18;6.32;;;4.10;;
41436;SDS011;27178;49.460;10.850;2022-07-23T07:33:48;6.20;;;4.38;;
41436;SDS011;27178;49.460;10.850;2022-07-23T07:36:16;4.80;;;4.40;;
41436;SDS011;27178;49.460;10.850;2022-07-23T07:38:45;5.00;;;4.60;;
41436;SDS011;27178;49.460;10.850;2022-07-23T07:41:15;4.75;;;4.40;;
41436;SDS011;27178;49.460;10.850;2022-07-23T07:43:43;5.03;;;4.15;;
41436;SDS011;27178;49.460;10.850;2022-07-23T07:46:11;4.70;;;4.35;;
41436;SDS011;27178;49.460;10.850;2022-07-23T07:48:39;4.75;;;4.35;;
41436;SDS011;27178;49.460;10.850;2022-07-23T07:51:09;5.55;;;5.07;;
41436;SDS011;27178;49.460;10.850;2022-07-23T07:53:38;4.97;;;4.53;;
41436;SDS011;27178;49.460;10.850;2022-07-23T07:56:07;5.30;;;4.25;;
41436;SDS011;27178;49.460;10.850;2022-07-23T07:58:35;5.15;;;4.53;;
41436;SDS011;27178;49.460;10.850;2022-07-23T08:01:04;4.80;;;4.40;;
41436;SDS011;27178;49.460;10.850;2022-07-23T08:03:33;4.88;;;4.47;;
41436;SDS011;27178;49.460;10.850;2022-07-23T08:06:02;4.75;;;3.90;;
41436;SDS011;27178;49.460;10.850;2022-07-23T08:08:32;4.03;;;3.72;;
41436;SDS011;27178;49.460;10.850;2022-07-23T08:11:01;4.38;;;3.97;;
41436;SDS011;27178;49.460;10.850;2022-07-23T08:13:29;4.97;;;4.57;;
41436;SDS011;27178;49.460;10.850;2022-07-23T08:15:57;4.10;;;3.80;;
41436;SDS011;27178;49.460;10.850;2022-07-23T08:18:26;3.92;;;3.47;;
41436;SDS011;27178;49.460;10.850;2022-07-23T08:20:55;4.25;;;3.85;;
41436;SDS011;27178;49.460;10.850;2022-07-23T08:23:23;4.32;;;3.72;;
41436;SDS011;27178;49.460;10.850;2022-07-23T08:25:57;4.40;;;3.95;;
41436;SDS011;27178;49.460;10.850;2022-07-23T08:28:26;5.88;;;4.03;;
41436;SDS011;27178;49.460;10.850;2022-07-23T08:30:54;4.25;;;3.95;;
41436;SDS011;27178;49.460;10.850;2022-07-23T08:33:22;4.05;;;3.65;;
41436;SDS011;27178;49.460;10.850;2022-07-23T08:35:59;4.15;;;3.85;;
41436;SDS011;27178;49.460;10.850;2022-07-23T08:38:29;3.70;;;3.40;;
41436;SDS011;27178;49.460;10.850;2022-07-23T08:40:59;3.80;;;3.50;;
41436;SDS011;27178;49.460;10.850;2022-07-23T08:43:28;3.47;;;3.20;;
41436;SDS011;27178;49.460;10.850;2022-07-23T08:45:59;3.67;;;3.40;;
41436;SDS011;27178;49.460;10.850;2022-07-23T08:48:30;3.75;;;3.45;;
41436;SDS011;27178;49.460;10.850;2022-07-23T08:51:00;3.97;;;3.10;;
41436;SDS011;27178;49.460;10.850;2022-07-23T08:53:33;3.53;;;3.22;;
41436;SDS011;27178;49.460;10.850;2022-07-23T08:56:05;3.70;;;3.40;;
41436;SDS011;27178;49.460;10.850;2022-07-23T08:58:35;3.95;;;3.65;;
41436;SDS011;27178;49.460;10.850;2022-07-23T09:01:03;4.32;;;3.92;;
41436;SDS011;27178;49.460;10.850;2022-07-23T09:03:33;4.35;;;4.05;;
41436;SDS011;27178;49.460;10.850;2022-07-23T09:06:02;11.70;;;3.60;;
41436;SDS011;27178;49.460;10.850;2022-07-23T09:08:34;3.80;;;3.55;;
41436;SDS011;27178;49.460;10.850;2022-07-23T09:11:06;3.75;;;3.47;;
41436;SDS011;27178;49.460;10.850;2022-07-23T09:13:37;6.25;;;3.08;;
41436;SDS011;27178;49.460;10.850;2022-07-23T09:16:09;3.80;;;3.50;;
41436;SDS011;27178;49.460;10.850;2022-07-23T09:18:41;4.15;;;3.75;;
41436;SDS011;27178;49.460;10.850;2022-07-23T09:21:15;3.65;;;3.35;;
41436;SDS011;27178;49.460;10.850;2022-07-23T09:23:47;3.88;;;3.58;;
41436;SDS011;27178;49.460;10.850;2022-07-23T09:26:20;4.18;;;3.45;;
41436;SDS011;27178;49.460;10.850;2022-07-23T09:29:08;4.32;;;3.92;;
41436;SDS011;27178;49.460;10.850;2022-07-23T09:31:47;4.47;;;4.07;;
41436;SDS011;27178;49.460;10.850;2022-07-23T09:34:21;4.18;;;3.80;;
41436;SDS011;27178;49.460;10.850;2022-07-23T09:36:51;4.05;;;3.75;;
41436;SDS011;27178;49.460;10.850;2022-07-23T09:39:27;8.57;;;4.50;;
41436;SDS011;27178;49.460;10.850;2022-07-23T09:42:12;6.85;;;4.57;;
41436;SDS011;27178;49.460;10.850;2022-07-23T09:44:42;3.58;;;3.35;;
41436;SDS011;27178;49.460;10.850;2022-07-23T09:47:11;4.40;;;3.47;;
41436;SDS011;27178;49.460;10.850;2022-07-23T09:49:39;3.97;;;3.60;;
41436;SDS011;27178;49.460;10.850;2022-07-23T09:52:07;5.00;;;4.13;;
41436;SDS011;27178;49.460;10.850;2022-07-23T09:54:36;5.63;;;4.78;;
41436;SDS011;27178;49.460;10.850;2022-07-23T09:57:08;4.97;;;4.35;;
41436;SDS011;27178;49.460;10.850;2022-07-23T09:59:39;6.15;;;4.50;;
41436;SDS011;27178;49.460;10.850;2022-07-23T10:02:10;4.50;;;3.97;;
41436;SDS011;27178;49.460;10.850;2022-07-23T10:04:39;5.38;;;4.88;;
41436;SDS011;27178;49.460;10.850;2022-07-23T10:07:08;5.40;;;4.90;;
41436;SDS011;27178;49.460;10.850;2022-07-23T10:09:38;4.88;;;4.45;;
41436;SDS011;27178;49.460;10.850;2022-07-23T10:12:11;4.85;;;4.45;;
41436;SDS011;27178;49.460;10.850;2022-07-23T10:14:59;5.03;;;4.57;;
41436;SDS011;27178;49.460;10.850;2022-07-23T10:17:28;5.45;;;4.60;;
41436;SDS011;27178;49.460;10.850;2022-07-23T10:19:57;4.53;;;4.15;;
41436;SDS011;27178;49.460;10.850;2022-07-23T10:22:27;4.90;;;4.40;;
41436;SDS011;27178;49.460;10.850;2022-07-23T10:25:00;4.90;;;4.50;;
41436;SDS011;27178;49.460;10.850;2022-07-23T10:27:43;5.18;;;4.72;;
41436;SDS011;27178;49.460;10.850;2022-07-23T10:30:22;4.70;;;4.32;;
41436;SDS011;27178;49.460;10.850;2022-07-23T10:33:02;4.72;;;4.32;;
41436;SDS011;27178;49.460;10.850;2022-07-23T10:35:44;5.75;;;5.25;;
41436;SDS011;27178;49.460;10.850;2022-07-23T10:38:19;4.85;;;4.43;;
41436;SDS011;27178;49.460;10.850;2022-07-23T10:40:55;4.97;;;4.47;;
41436;SDS011;27178;49.460;10.850;2022-07-23T10:43:26;4.75;;;4.38;;
41436;SDS011;27178;49.460;10.850;2022-07-23T10:54:49;4.55;;;4.13;;
41436;SDS011;27178;49.460;10.850;2022-07-23T10:57:20;5.00;;;4.60;;
41436;SDS011;27178;49.460;10.850;2022-07-23T11:02:45;3.92;;;3.63;;
41436;SDS011;27178;49.460;10.850;2022-07-23T11:05:15;5.15;;;4.32;;
41436;SDS011;27178;49.460;10.850;2022-07-23T11:10:50;5.03;;;4.63;;
41436;SDS011;27178;49.460;10.850;2022-07-23T11:13:39;5.03;;;4.63;;
41436;SDS011;27178;49.460;10.850;2022-07-23T11:16:18;5.05;;;4.65;;
41436;SDS011;27178;49.460;10.850;2022-07-23T11:21:49;5.18;;;4.68;;
41436;SDS011;27178;49.460;10.850;2022-07-23T11:24:20;5.30;;;4.40;;
41436;SDS011;27178;49.460;10.850;2022-07-23T11:29:40;3.50;;;3.30;;
41436;SDS011;27178;49.460;10.850;2022-07-23T11:32:23;4.30;;;4.00;;
41436;SDS011;27178;49.460;10.850;2022-07-23T11:34:56;4.70;;;4.30;;
41436;SDS011;27178;49.460;10.850;2022-07-23T11:37:35;5.03;;;4.63;;
41436;SDS011;27178;49.460;10.850;2022-07-23T11:40:06;3.95;;;3.65;;
41436;SDS011;27178;49.460;10.850;2022-07-23T11:42:36;4.00;;;3.70;;
41436;SDS011;27178;49.460;10.850;2022-07-23T11:45:06;4.45;;;4.10;;
41436;SDS011;27178;49.460;10.850;2022-07-23T11:47:37;4.30;;;4.00;;
41436;SDS011;27178;49.460;10.850;2022-07-23T11:50:06;4.40;;;4.10;;
41436;SDS011;27178;49.460;10.850;2022-07-23T11:52:35;4.60;;;4.20;;
41436;SDS011;27178;49.460;10.850;2022-07-23T11:55:04;4.45;;;4.03;;
41436;SDS011;27178;49.460;10.850;2022-07-23T11:57:35;4.22;;;3.72;;
41436;SDS011;27178;49.460;10.850;2022-07-23T12:00:05;4.30;;;4.00;;
41436;SDS011;27178;49.460;10.850;2022-07-23T12:02:39;4.13;;;3.83;;
41436;SDS011;27178;49.460;10.850;2022-07-23T12:05:08;4.28;;;3.90;;
41436;SDS011;27178;49.460;10.850;2022-07-23T12:07:40;4.25;;;3.80;;
41436;SDS011;27178;49.460;10.850;2022-07-23T12:10:12;3.47;;;3.28;;
41436;SDS011;27178;49.460;10.850;2022-07-23T12:12:42;5.05;;;4.65;;
41436;SDS011;27178;49.460;10.850;2022-07-23T12:15:12;5.57;;;3.80;;
41436;SDS011;27178;49.460;10.850;2022-07-23T12:17:44;5.53;;;5.03;;
41436;SDS011;27178;49.460;10.850;2022-07-23T12:20:18;6.40;;;4.20;;
41436;SDS011;27178;49.460;10.850;2022-07-23T12:22:49;5.20;;;4.45;;
41436;SDS011;27178;49.460;10.850;2022-07-23T12:25:19;6.70;;;5.03;;
41436;SDS011;27178;49.460;10.850;2022-07-23T12:27:58;6.53;;;6.03;;
41436;SDS011;27178;49.460;10.850;2022-07-23T12:30:30;5.70;;;5.15;;
41436;SDS011;27178;49.460;10.850;2022-07-23T12:33:02;5.53;;;5.03;;
41436;SDS011;27178;49.460;10.850;2022-07-23T12:35:33;5.57;;;5.10;;
41436;SDS011;27178;49.460;10.850;2022-07-23T12:38:05;4.25;;;3.95;;
41436;SDS011;27178;49.460;10.850;2022-07-23T12:40:35;23.98;;;6.53;;
41436;SDS011;27178;49.460;10.850;2022-07-23T12:43:05;5.53;;;4.25;;
41436;SDS011;27178;49.460;10.850;2022-07-23T12:45:42;8.27;;;5.05;;
41436;SDS011;27178;49.460;10.850;2022-07-23T12:48:17;5.10;;;4.40;;
41436;SDS011;27178;49.460;10.850;2022-07-23T12:50:54;4.68;;;4.20;;
41436;SDS011;27178;49.460;10.850;2022-07-23T12:53:25;10.68;;;4.47;;
41436;SDS011;27178;49.460;10.850;2022-07-23T12:56:00;5.90;;;5.15;;
41436;SDS011;27178;49.460;10.850;2022-07-23T12:58:42;4.30;;;3.90;;
41436;SDS011;27178;49.460;10.850;2022-07-23T13:01:24;5.00;;;4.53;;
41436;SDS011;27178;49.460;10.850;2022-07-23T13:03:57;6.72;;;4.32;;
41436;SDS011;27178;49.460;10.850;2022-07-23T13:06:31;12.55;;;4.93;;
41436;SDS011;27178;49.460;10.850;2022-07-23T13:09:02;8.88;;;8.00;;
41436;SDS011;27178;49.460;10.850;2022-07-23T13:11:34;5.70;;;5.20;;
41436;SDS011;27178;49.460;10.850;2022-07-23T13:14:04;6.03;;;5.45;;
41436;SDS011;27178;49.460;10.850;2022-07-23T13:16:34;6.43;;;5.93;;
41436;SDS011;27178;49.460;10.850;2022-07-23T13:19:05;5.18;;;4.78;;
41436;SDS011;27178;49.460;10.850;2022-07-23T13:21:37;5.00;;;4.60;;
41436;SDS011;27178;49.460;10.850;2022-07-23T13:24:07;4.82;;;4.43;;
41436;SDS011;27178;49.460;10.850;2022-07-23T13:26:38;4.35;;;3.95;;
41436;SDS011;27178;49.460;10.850;2022-07-23T13:29:07;7.55;;;4.30;;
41436;SDS011;27178;49.460;10.850;2022-07-23T13:31:37;4.80;;;4.30;;
41436;SDS011;27178;49.460;10.850;2022-07-23T13:34:07;4.28;;;3.88;;
41436;SDS011;27178;49.460;10.850;2022-07-23T13:36:36;4.60;;;4.20;;
41436;SDS011;27178;49.460;10.850;2022-07-23T13:39:04;4.38;;;3.97;;
41436;SDS011;27178;49.460;10.850;2022-07-23T13:41:35;4.30;;;4.00;;
41436;SDS011;27178;49.460;10.850;2022-07-23T13:44:04;5.30;;;3.85;;
41436;SDS011;27178;49.460;10.850;2022-07-23T13:46:33;3.58;;;3.38;;
41436;SDS011;27178;49.460;10.850;2022-07-23T13:49:01;3.75;;;3.55;;
41436;SDS011;27178;49.460;10.850;2022-07-23T13:51:36;4.35;;;4.05;;
41436;SDS011;27178;49.460;10.850;2022-07-23T13:54:05;4.07;;;3.78;;
41436;SDS011;27178;49.460;10.850;2022-07-23T13:56:34;4.05;;;3.75;;
41436;SDS011;27178;49.460;10.850;2022-07-23T13:59:02;4.13;;;3.83;;
41436;SDS011;27178;49.460;10.850;2022-07-23T14:01:32;4.10;;;3.80;;
41436;SDS011;27178;49.460;10.850;2022-07-23T14:04:21;4.05;;;3.75;;
41436;SDS011;27178;49.460;10.850;2022-07-23T14:06:51;6.75;;;4.05;;
41436;SDS011;27178;49.460;10.850;2022-07-23T14:09:20;4.82;;;4.28;;
41436;SDS011;27178;49.460;10.850;2022-07-23T14:11:50;3.92;;;3.67;;
41436;SDS011;27178;49.460;10.850;2022-07-23T14:14:19;4.05;;;3.75;;
41436;SDS011;27178;49.460;10.850;2022-07-23T14:16:47;4.15;;;3.72;;
41436;SDS011;27178;49.460;10.850;2022-07-23T14:19:16;5.53;;;3.95;;
41436;SDS011;27178;49.460;10.850;2022-07-23T14:21:44;4.18;;;3.88;;
41436;SDS011;27178;49.460;10.850;2022-07-23T14:24:16;3.83;;;3.60;;
41436;SDS011;27178;49.460;10.850;2022-07-23T14:26:47;3.97;;;3.67;;
41436;SDS011;27178;49.460;10.850;2022-07-23T14:29:15;4.35;;;3.95;;
41436;SDS011;27178;49.460;10.850;2022-07-23T14:31:44;3.88;;;3.58;;
41436;SDS011;27178;49.460;10.850;2022-07-23T14:34:13;4.00;;;3.60;;
41436;SDS011;27178;49.460;10.850;2022-07-23T14:36:41;3.85;;;3.55;;
41436;SDS011;27178;49.460;10.850;2022-07-23T14:39:10;4.00;;;3.70;;
41436;SDS011;27178;49.460;10.850;2022-07-23T14:41:40;4.68;;;3.83;;
41436;SDS011;27178;49.460;10.850;2022-07-23T14:44:08;4.38;;;3.97;;
41436;SDS011;27178;49.460;10.850;2022-07-23T14:46:37;4.88;;;4.00;;
41436;SDS011;27178;49.460;10.850;2022-07-23T14:49:05;5.07;;;3.70;;
41436;SDS011;27178;49.460;10.850;2022-07-23T14:51:35;3.95;;;3.65;;
41436;SDS011;27178;49.460;10.850;2022-07-23T14:54:04;4.00;;;3.72;;
41436;SDS011;27178;49.460;10.850;2022-07-23T14:56:33;4.25;;;3.85;;
41436;SDS011;27178;49.460;10.850;2022-07-23T14:59:04;3.83;;;3.53;;
41436;SDS011;27178;49.460;10.850;2022-07-23T15:01:32;4.70;;;3.88;;
41436;SDS011;27178;49.460;10.850;2022-07-23T15:04:03;4.00;;;3.58;;
41436;SDS011;27178;49.460;10.850;2022-07-23T15:06:52;5.75;;;3.92;;
41436;SDS011;27178;49.460;10.850;2022-07-23T15:09:21;4.25;;;3.88;;
41436;SDS011;27178;49.460;10.850;2022-07-23T15:11:49;4.30;;;3.90;;